Time;durP1;ratioP1;P1;durP2;ratioP2;P2;SDS_P1;SDS_P2;PMS_P1;PMS_P2;Temp;Humidity;BMP_temperature;BMP_pressure;BME280_temperature;BME280_humidity;BME280_pressure;Samples;Min_cycle;Max_cycle;Signal;HPM_P1;HPM_P2
2022/03/22 00:00:27;;;;;;;;;;;;;;;0.99;75.72;101321.48;1708656;83;20117;-62
2022/03/22 00:02:58;;;;;;;;;;;;;;;0.96;76.02;101320.55;1685538;83;20152;-62
2022/03/22 00:05:30;;;;;;;;;;;;;;;0.90;76.07;101322.73;1713985;83;20121;-65
2022/03/22 00:08:00;;;;;;;;;;;;;;;0.86;76.28;101325.02;1713501;83;21857;-62
2022/03/22 00:10:34;;;;;;;;;;;;;;;0.82;76.60;101322.95;1711910;83;20432;-62
2022/03/22 00:13:09;;;;;;;;;;;;;;;0.84;77.04;101322.22;1713343;83;20436;-62
2022/03/22 00:15:34;;;;;;;;;;;;;;;0.86;77.15;101317.43;1688313;85;20127;-61
2022/03/22 00:18:10;;;;;;;;;;;;;;;0.87;77.18;101321.28;1666540;86;20078;-61
2022/03/22 00:20:38;;;;;;;;;;;;;;;0.83;77.13;101320.55;1666402;86;20114;-61
2022/03/22 00:23:13;;;;;;;;;;;;;;;0.71;76.62;101322.22;1640873;86;20161;-61
2022/03/22 00:25:47;;;;;;;;;;;;;;;0.58;77.21;101317.63;1640687;86;20114;-61
2022/03/22 00:28:15;;;;;;;;;;;;;;;0.50;78.19;101318.70;1665394;86;20125;-61
2022/03/22 00:30:50;;;;;;;;;;;;;;;0.45;78.27;101314.44;1666607;86;20105;-62
2022/03/22 00:33:15;;;;;;;;;;;;;;;0.38;78.19;101318.99;1665689;86;21195;-62
2022/03/22 00:35:46;;;;;;;;;;;;;;;0.28;78.09;101323.96;1640813;86;20145;-62
2022/03/22 00:38:16;;;;;;;;;;;;;;;0.21;79.14;101321.25;1666466;86;20126;-62
2022/03/22 00:40:44;;;;;;;;;;;;;;;0.25;80.38;101318.97;1665872;86;20114;-61
2022/03/22 00:43:15;;;;;;;;;;;;;;;0.25;80.54;101317.09;1666644;86;20417;-61
2022/03/22 00:45:48;;;;;;;;;;;;;;;0.27;81.13;101314.20;1665337;86;21386;-61
2022/03/22 00:48:20;;;;;;;;;;;;;;;0.28;81.61;101316.69;1666438;86;20165;-61
2022/03/22 00:50:53;;;;;;;;;;;;;;;0.21;81.21;101315.84;1666639;86;20473;-61
2022/03/22 00:53:32;;;;;;;;;;;;;;;0.17;82.19;101321.86;1666614;86;20102;-61
2022/03/22 00:56:01;;;;;;;;;;;;;;;0.09;80.83;101318.83;1666194;86;20453;-62
2022/03/22 00:58:29;;;;;;;;;;;;;;;-0.06;80.63;101321.72;1640947;86;20627;-61
2022/03/22 01:01:00;;;;;;;;;;;;;;;-0.20;81.42;101321.36;1640927;86;20134;-62
2022/03/22 01:03:28;;;;;;;;;;;;;;;-0.25;83.04;101326.52;1665627;86;20090;-62
2022/03/22 01:05:59;;;;;;;;;;;;;;;-0.30;82.43;101323.59;1658849;86;20405;-62
2022/03/22 01:08:31;;;;;;;;;;;;;;;-0.36;83.66;101325.23;1666631;86;20105;-62
2022/03/22 01:11:00;;;;;;;;;;;;;;;-0.28;84.89;101327.44;1640465;86;20097;-62
2022/03/22 01:13:32;;;;;;;;;;;;;;;-0.23;84.90;101321.76;1640993;86;20425;-62
2022/03/22 01:16:01;;;;;;;;;;;;;;;-0.18;85.32;101323.33;1666731;86;20114;-62
2022/03/22 01:18:30;;;;;;;;;;;;;;;-0.13;84.73;101324.91;1666702;86;20429;-62
2022/03/22 01:21:06;;;;;;;;;;;;;;;-0.08;86.35;101325.14;1658947;86;20141;-62
2022/03/22 01:23:39;;;;;;;;;;;;;;;0.11;87.53;101318.11;1641063;86;20105;-61
2022/03/22 01:26:06;;;;;;;;;;;;;;;0.30;86.47;101317.31;1665963;86;20129;-61
2022/03/22 01:28:34;;;;;;;;;;;;;;;0.38;85.31;101317.64;1666645;86;20106;-62
2022/03/22 01:31:02;;;;;;;;;;;;;;;0.35;84.22;101319.41;1666887;86;20440;-61
2022/03/22 01:33:29;;;;;;;;;;;;;;;0.25;83.32;101317.62;1659968;86;20094;-63
2022/03/22 01:36:05;;;;;;;;;;;;;;;0.12;83.35;101315.72;1666683;86;21522;-60
2022/03/22 01:38:31;;;;;;;;;;;;;;;0.09;84.50;101322.05;1666083;86;20101;-61
2022/03/22 01:41:05;;;;;;;;;;;;;;;0.07;83.87;101320.06;1666745;86;20118;-61
2022/03/22 01:43:30;;;;;;;;;;;;;;;-0.01;84.12;101320.59;1665922;86;20463;-60
2022/03/22 01:45:58;;;;;;;;;;;;;;;-0.04;85.34;101314.77;1665957;86;20081;-60
2022/03/22 01:48:37;;;;;;;;;;;;;;;0.02;84.75;101314.44;1640885;86;20114;-60
2022/03/22 01:51:09;;;;;;;;;;;;;;;-0.02;84.19;101316.23;1640436;86;20481;-64
2022/03/22 01:53:41;;;;;;;;;;;;;;;-0.03;84.48;101311.86;1641347;86;20101;-62
2022/03/22 01:56:11;;;;;;;;;;;;;;;0.03;85.29;101318.80;1641377;86;20145;-63
2022/03/22 01:58:47;;;;;;;;;;;;;;;0.03;84.42;101322.86;1665670;86;20464;-63
2022/03/22 02:06:55;;;;;;;;;;;;;;;0.05;87.40;101319.44;1667927;85;20093;-60
2022/03/22 02:09:27;;;;;;;;;;;;;;;0.23;86.55;101316.47;1664426;84;20432;-61
2022/03/22 02:11:55;;;;;;;;;;;;;;;0.25;85.37;101312.22;1736119;82;20434;-63
2022/03/22 02:14:27;;;;;;;;;;;;;;;0.21;85.11;101309.09;1746897;82;20107;-62
2022/03/22 02:17:01;;;;;;;;;;;;;;;0.20;85.22;101306.59;1745900;82;20142;-62
2022/03/22 02:19:28;;;;;;;;;;;;;;;0.24;85.18;101309.20;1745974;82;20111;-61
2022/03/22 02:22:02;;;;;;;;;;;;;;;0.20;84.53;101310.12;1746178;82;20111;-61
2022/03/22 02:24:33;;;;;;;;;;;;;;;0.08;84.19;101317.67;1744590;82;20172;-62
2022/03/22 02:27:02;;;;;;;;;;;;;;;-0.01;84.58;101317.89;1737940;82;21338;-62
2022/03/22 02:29:35;;;;;;;;;;;;;;;-0.09;84.78;101321.29;1677706;84;20430;-62
2022/03/22 02:32:09;;;;;;;;;;;;;;;-0.15;84.65;101320.75;1701700;83;20164;-63
2022/03/22 02:34:45;;;;;;;;;;;;;;;-0.26;84.13;101330.77;1728983;82;20108;-63
2022/03/22 02:37:12;;;;;;;;;;;;;;;-0.38;84.20;101325.12;1727887;83;20113;-62
2022/03/22 02:39:44;;;;;;;;;;;;;;;-0.44;84.42;101327.27;1728975;83;21142;-62
2022/03/22 02:42:13;;;;;;;;;;;;;;;-0.48;85.04;101329.53;1700993;83;20475;-62
2022/03/22 02:44:40;;;;;;;;;;;;;;;-0.45;86.04;101333.70;1728956;83;20122;-62
2022/03/22 02:47:07;;;;;;;;;;;;;;;-0.42;86.08;101332.78;1726381;83;20177;-63
2022/03/22 02:49:43;;;;;;;;;;;;;;;-0.39;86.38;101331.55;1701399;82;20147;-63
2022/03/22 02:52:16;;;;;;;;;;;;;;;-0.36;86.75;101329.28;1716149;83;21726;-62
2022/03/22 02:54:44;;;;;;;;;;;;;;;-0.30;87.03;101329.51;1716469;83;20160;-64
2022/03/22 02:57:18;;;;;;;;;;;;;;;-0.25;87.40;101333.27;1709166;83;20168;-62
2022/03/22 02:59:46;;;;;;;;;;;;;;;-0.19;87.59;101328.42;1713470;83;20117;-63
2022/03/22 03:02:13;;;;;;;;;;;;;;;-0.10;87.81;101330.42;1679596;83;20441;-61
2022/03/22 03:04:50;;;;;;;;;;;;;;;-0.06;87.69;101329.82;1713340;83;21273;-62
2022/03/22 03:07:18;;;;;;;;;;;;;;;-0.02;87.71;101327.03;1743210;82;20095;-61
2022/03/22 03:09:48;;;;;;;;;;;;;;;-0.02;87.29;101323.50;1744891;82;20108;-63
2022/03/22 03:12:21;;;;;;;;;;;;;;;-0.08;86.58;101326.48;1727451;82;20091;-62
2022/03/22 03:14:53;;;;;;;;;;;;;;;-0.21;85.73;101322.39;1737490;82;20095;-62
2022/03/22 03:17:26;;;;;;;;;;;;;;;-0.31;86.14;101323.28;1729294;82;21174;-64
2022/03/22 03:19:55;;;;;;;;;;;;;;;-0.36;86.38;101327.09;1693014;83;20086;-62
2022/03/22 03:22:32;;;;;;;;;;;;;;;-0.41;86.75;101329.05;1715558;83;20166;-62
2022/03/22 03:25:00;;;;;;;;;;;;;;;-0.43;87.58;101319.48;1725616;82;20137;-62
2022/03/22 03:27:37;;;;;;;;;;;;;;;-0.40;88.07;101324.48;1743193;82;20413;-63
2022/03/22 03:30:04;;;;;;;;;;;;;;;-0.37;88.15;101324.08;1742114;82;21165;-63
2022/03/22 03:32:32;;;;;;;;;;;;;;;-0.34;88.40;101327.73;1737513;82;20440;-63
2022/03/22 03:35:04;;;;;;;;;;;;;;;-0.28;88.85;101329.63;1743820;82;20093;-63
2022/03/22 03:37:41;;;;;;;;;;;;;;;-0.19;89.24;101333.81;1745010;82;20154;-64
2022/03/22 03:40:06;;;;;;;;;;;;;;;-0.09;89.52;101339.67;1744492;82;20175;-62
2022/03/22 03:42:42;;;;;;;;;;;;;;;0.00;89.65;101334.38;1738730;82;21167;-63
2022/03/22 03:48:01;;;;;;;;;;;;;;;0.14;89.39;101335.77;1718374;83;20117;-61
2022/03/22 03:50:33;;;;;;;;;;;;;;;0.18;89.25;101341.08;1699535;83;20093;-62
2022/03/22 03:53:18;;;;;;;;;;;;;;;0.21;89.00;101341.50;1718243;83;20082;-60
2022/03/22 03:55:35;;;;;;;;;;;;;;;0.22;88.76;101339.63;1697440;83;21816;-60
2022/03/22 03:58:04;;;;;;;;;;;;;;;0.18;88.92;101343.78;1699516;83;20095;-61
2022/03/22 04:00:35;;;;;;;;;;;;;;;0.12;88.85;101343.24;1718170;83;20094;-61
2022/03/22 04:03:09;;;;;;;;;;;;;;;0.05;88.96;101346.44;1699578;83;20081;-61
2022/03/22 04:05:36;;;;;;;;;;;;;;;0.02;89.68;101345.49;1718410;83;20082;-63
2022/03/22 04:08:10;;;;;;;;;;;;;;;-0.04;89.13;101352.05;1699487;83;20441;-62
2022/03/22 04:10:35;;;;;;;;;;;;;;;-0.14;88.75;101351.59;1722126;83;20094;-62
2022/03/22 04:13:03;;;;;;;;;;;;;;;-0.28;88.82;101355.78;1722344;83;20117;-61
2022/03/22 04:15:34;;;;;;;;;;;;;;;-0.40;89.05;101350.12;1721458;83;20128;-63
2022/03/22 04:18:06;;;;;;;;;;;;;;;-0.48;88.96;101355.67;1722364;83;20094;-72
2022/03/22 04:20:39;;;;;;;;;;;;;;;-0.54;89.04;101360.52;1722545;83;20098;-72
2022/03/22 04:23:08;;;;;;;;;;;;;;;-0.62;88.97;101364.75;1721970;83;20094;-64
2022/03/22 04:25:37;;;;;;;;;;;;;;;-0.67;89.17;101365.34;1701648;83;20425;-73
2022/03/22 04:33:38;;;;;;;;;;;;;;;-0.31;92.26;101365.11;1722646;83;21273;-72
2022/03/22 04:36:14;;;;;;;;;;;;;;;-0.14;92.20;101369.66;1722512;83;20082;-74
2022/03/22 04:38:42;;;;;;;;;;;;;;;-0.02;92.13;101368.87;1722039;83;20121;-72
2022/03/22 04:41:17;;;;;;;;;;;;;;;0.10;92.33;101371.80;1722236;83;20424;-64
2022/03/22 04:43:46;;;;;;;;;;;;;;;0.24;92.30;101371.33;1722033;83;20109;-69
2022/03/22 04:46:18;;;;;;;;;;;;;;;0.38;92.11;101371.67;1722360;83;21179;-70
2022/03/22 04:48:42;;;;;;;;;;;;;;;0.50;91.84;101374.09;1701225;83;20114;-71
2022/03/22 04:57:00;;;;;;;;;;;;;;;0.85;91.18;101380.14;1722579;83;20082;-72
2022/03/22 04:59:41;;;;;;;;;;;;;;;0.98;90.95;101383.38;1701300;83;20121;-75
2022/03/22 05:02:14;;;;;;;;;;;;;;;1.08;90.69;101389.20;1721696;83;20094;-73
2022/03/22 05:04:38;;;;;;;;;;;;;;;1.16;90.36;101387.61;1722335;83;20097;-75
2022/03/22 05:07:08;;;;;;;;;;;;;;;1.24;90.20;101381.14;1722574;83;20172;-70
2022/03/22 05:09:38;;;;;;;;;;;;;;;1.32;90.06;101391.75;1722515;83;20417;-69
2022/03/22 05:12:14;;;;;;;;;;;;;;;1.43;89.82;101390.28;1698322;83;20752;-69
2022/03/22 05:14:43;;;;;;;;;;;;;;;1.52;89.50;101391.73;1694534;83;20118;-68
2022/03/22 05:17:12;;;;;;;;;;;;;;;1.62;89.16;101392.13;1716390;83;20162;-69
2022/03/22 05:19:41;;;;;;;;;;;;;;;1.69;88.73;101395.65;1717308;83;20149;-68
2022/03/22 05:22:12;;;;;;;;;;;;;;;1.76;88.52;101396.95;1694711;83;20081;-69
2022/03/22 05:24:43;;;;;;;;;;;;;;;1.84;88.38;101396.20;1692608;83;20098;-69
2022/03/22 05:27:18;;;;;;;;;;;;;;;1.93;87.82;101398.98;1717135;83;20081;-69
2022/03/22 05:29:50;;;;;;;;;;;;;;;2.02;87.54;101404.16;1694839;83;20081;-68
2022/03/22 05:32:18;;;;;;;;;;;;;;;2.09;87.34;101403.61;1717280;83;20350;-68
2022/03/22 05:34:53;;;;;;;;;;;;;;;2.17;87.01;101404.20;1715289;83;20114;-68
2022/03/22 05:37:27;;;;;;;;;;;;;;;2.25;86.60;101412.61;1694506;83;20122;-69
2022/03/22 05:39:54;;;;;;;;;;;;;;;2.30;86.22;101402.79;1716716;83;20118;-68
2022/03/22 05:42:23;;;;;;;;;;;;;;;2.37;85.97;101404.08;1717295;83;20082;-68
2022/03/22 05:44:53;;;;;;;;;;;;;;;2.45;85.90;101411.96;1717290;83;20131;-67
2022/03/22 05:47:20;;;;;;;;;;;;;;;2.55;85.71;101406.07;1717308;83;20082;-67
2022/03/22 05:49:55;;;;;;;;;;;;;;;2.64;85.39;101404.24;1694709;83;20509;-71
2022/03/22 05:52:21;;;;;;;;;;;;;;;2.75;84.98;101411.38;1680460;85;20115;-70
2022/03/22 05:54:54;;;;;;;;;;;;;;;2.83;84.58;101408.40;1680180;85;20144;-71
2022/03/22 05:57:24;;;;;;;;;;;;;;;2.91;84.25;101406.22;1680111;85;20156;-71
2022/03/22 05:59:58;;;;;;;;;;;;;;;3.00;83.92;101404.06;1680640;85;20455;-71
2022/03/22 06:02:29;;;;;;;;;;;;;;;3.11;83.32;101406.06;1680480;85;20117;-71
2022/03/22 06:04:56;;;;;;;;;;;;;;;3.21;82.98;101409.12;1680334;85;20119;-71
2022/03/22 06:07:23;;;;;;;;;;;;;;;3.31;82.43;101416.23;1680682;85;20151;-71
2022/03/22 06:09:54;;;;;;;;;;;;;;;3.42;81.93;101421.47;1680774;85;20103;-71
2022/03/22 06:12:21;;;;;;;;;;;;;;;3.52;81.72;101423.11;1695591;83;20094;-71
2022/03/22 06:15:14;;;;;;;;;;;;;;;3.65;81.41;101425.70;1710467;83;21181;-67
2022/03/22 06:17:18;;;;;;;;;;;;;;;3.78;80.94;101423.91;1709179;84;20082;-67
2022/03/22 06:19:54;;;;;;;;;;;;;;;3.90;80.56;101425.66;1712756;83;20465;-67
2022/03/22 06:22:18;;;;;;;;;;;;;;;4.05;80.10;101425.77;1711991;83;20408;-67
2022/03/22 06:24:51;;;;;;;;;;;;;;;4.19;79.49;101422.67;1687947;84;20110;-68
2022/03/22 06:27:20;;;;;;;;;;;;;;;4.34;79.06;101426.89;1712464;83;21227;-68
2022/03/22 06:29:47;;;;;;;;;;;;;;;4.49;78.37;101424.07;1712260;83;20526;-68
2022/03/22 06:32:22;;;;;;;;;;;;;;;4.64;77.64;101425.81;1712776;84;20429;-68
2022/03/22 06:34:52;;;;;;;;;;;;;;;4.81;77.28;101433.33;1712185;83;20082;-68
2022/03/22 06:37:18;;;;;;;;;;;;;;;4.97;76.83;101437.58;1712575;83;20074;-68
2022/03/22 06:39:49;;;;;;;;;;;;;;;5.16;75.87;101436.15;1712411;83;21182;-67
2022/03/22 06:42:18;;;;;;;;;;;;;;;5.33;75.40;101437.63;1689959;84;20452;-67
2022/03/22 06:44:52;;;;;;;;;;;;;;;5.50;74.96;101439.42;1712074;83;20178;-67
2022/03/22 06:47:16;;;;;;;;;;;;;;;5.70;73.87;101433.63;1711801;83;20094;-69
2022/03/22 06:49:43;;;;;;;;;;;;;;;;;;1712528;84;20094;-68
2022/03/22 06:52:15;;;;;;;;;;;;;;;6.07;71.61;101437.44;1712530;84;21251;-67
2022/03/22 06:54:43;;;;;;;;;;;;;;;6.27;70.59;101444.69;1703272;83;20169;-67
2022/03/22 06:57:17;;;;;;;;;;;;;;;6.43;69.38;101445.27;1712493;84;20429;-68
2022/03/22 06:59:51;;;;;;;;;;;;;;;6.58;68.95;101446.94;1690006;84;20098;-68
2022/03/22 07:02:18;;;;;;;;;;;;;;;6.78;68.95;101449.77;1712262;83;20081;-69
2022/03/22 07:04:46;;;;;;;;;;;;;;;6.94;67.42;101449.78;1712540;84;21217;-66
2022/03/22 07:07:17;;;;;;;;;;;;;;;7.10;67.10;101455.52;1712429;83;20094;-67
2022/03/22 07:09:49;;;;;;;;;;;;;;;7.25;66.13;101449.78;1689091;84;20118;-67
2022/03/22 07:12:22;;;;;;;;;;;;;;;7.43;64.55;101454.18;1712660;83;20379;-67
2022/03/22 07:14:55;;;;;;;;;;;;;;;7.53;63.61;101453.48;1704692;83;20082;-67
2022/03/22 07:17:27;;;;;;;;;;;;;;;7.63;63.44;101454.47;1690445;83;20118;-68
2022/03/22 07:20:00;;;;;;;;;;;;;;;7.78;62.22;101453.05;1713986;83;20082;-67
2022/03/22 07:22:29;;;;;;;;;;;;;;;8.05;62.66;101451.27;1714578;83;20276;-68
2022/03/22 07:25:01;;;;;;;;;;;;;;;8.60;61.81;101450.32;1714559;83;37747;-68
2022/03/22 07:27:30;;;;;;;;;;;;;;;9.23;58.96;101452.32;1714250;83;20460;-67
2022/03/22 07:30:00;;;;;;;;;;;;;;;9.77;57.98;101449.43;1712597;83;21274;-67
2022/03/22 07:32:29;;;;;;;;;;;;;;;10.39;56.64;101450.60;1690209;83;20114;-67
2022/03/22 07:35:02;;;;;;;;;;;;;;;10.93;55.34;101442.78;1690196;83;20460;-67
2022/03/22 07:37:34;;;;;;;;;;;;;;;11.48;53.27;101452.14;1714554;83;20094;-67
2022/03/22 07:40:04;;;;;;;;;;;;;;;11.83;51.34;101444.41;1690381;83;20465;-68
2022/03/22 07:42:37;;;;;;;;;;;;;;;12.12;50.44;101442.70;1690275;83;20086;-67
2022/03/22 07:45:13;;;;;;;;;;;;;;;12.45;48.79;101443.92;1712497;83;20094;-68
2022/03/22 07:47:41;;;;;;;;;;;;;;;12.65;47.81;101437.50;1705054;83;20090;-67
2022/03/22 07:53:05;;;;;;;;;;;;;;;13.21;46.81;101446.24;1714487;83;20094;-66
2022/03/22 07:55:31;;;;;;;;;;;;;;;13.54;45.79;101445.12;1713891;83;21127;-67
2022/03/22 07:57:57;;;;;;;;;;;;;;;13.77;45.00;101437.45;1714534;83;20121;-66
2022/03/22 08:00:30;;;;;;;;;;;;;;;14.03;43.70;101448.21;1714520;83;20198;-68
2022/03/22 08:03:04;;;;;;;;;;;;;;;14.18;42.50;101448.05;1714609;83;20475;-67
2022/03/22 08:05:28;;;;;;;;;;;;;;;14.18;42.06;101446.11;1713647;83;20129;-66
2022/03/22 08:08:06;;;;;;;;;;;;;;;14.18;42.12;101444.73;1714224;83;21162;-69
2022/03/22 08:10:34;;;;;;;;;;;;;;;14.23;41.33;101440.26;1688218;83;20438;-68
2022/03/22 08:13:03;;;;;;;;;;;;;;;14.25;40.87;101445.75;1714464;83;20078;-64
2022/03/22 08:15:29;;;;;;;;;;;;;;;14.21;40.81;101447.46;1714409;83;20097;-64
2022/03/22 08:17:58;;;;;;;;;;;;;;;14.34;41.37;101440.41;1714542;83;20165;-64
2022/03/22 08:20:28;;;;;;;;;;;;;;;14.73;39.81;101443.77;1714417;83;20097;-64
2022/03/22 08:23:03;;;;;;;;;;;;;;;15.04;39.39;101445.50;1714687;83;20442;-64
2022/03/22 08:25:31;;;;;;;;;;;;;;;15.32;39.14;101442.87;1713460;83;20121;-64
2022/03/22 08:28:03;;;;;;;;;;;;;;;15.55;38.41;101446.08;1714504;83;20098;-64
2022/03/22 08:30:36;;;;;;;;;;;;;;;15.80;38.04;101442.86;1710970;83;20093;-64
2022/03/22 08:33:06;;;;;;;;;;;;;;;16.16;36.77;101438.86;1712480;83;21273;-64
2022/03/22 08:35:32;;;;;;;;;;;;;;;16.33;36.52;101433.23;1714324;83;20464;-64
2022/03/22 08:38:02;;;;;;;;;;;;;;;16.54;36.48;101432.25;1714507;83;20082;-64
2022/03/22 08:40:36;;;;;;;;;;;;;;;16.72;35.93;101434.10;1689456;83;20118;-65
2022/03/22 08:43:06;;;;;;;;;;;;;;;16.86;35.82;101429.31;1713512;83;20166;-64
2022/03/22 08:45:39;;;;;;;;;;;;;;;17.13;34.87;101429.80;1714581;83;21178;-65
2022/03/22 08:48:11;;;;;;;;;;;;;;;17.18;33.45;101427.47;1690232;83;20094;-65
2022/03/22 08:50:42;;;;;;;;;;;;;;;17.15;32.60;101427.53;1714525;83;20097;-64
2022/03/22 08:53:13;;;;;;;;;;;;;;;17.14;33.31;101427.28;1714484;83;20123;-65
2022/03/22 08:55:44;;;;;;;;;;;;;;;17.10;33.34;101431.81;1714052;83;20178;-66
2022/03/22 08:58:13;;;;;;;;;;;;;;;17.11;34.25;101423.74;1714264;83;21325;-67
2022/03/22 09:00:49;;;;;;;;;;;;;;;17.31;33.40;101425.20;1714469;83;20082;-66
2022/03/22 09:03:19;;;;;;;;;;;;;;;17.54;33.11;101417.66;1689813;83;20098;-70
2022/03/22 09:08:46;;;;;;;;;;;;;;;17.85;32.57;101421.88;1714398;83;20097;-72
2022/03/22 09:11:13;;;;;;;;;;;;;;;18.13;33.41;101416.33;1713754;83;21199;-68
2022/03/22 09:15:05;;;;;;;;;;;;;;;;;;;;;
2022/03/22 09:19:25;;;;;;;;;;;;;;;18.84;29.97;101415.61;1709060;82;20099;-72
2022/03/22 09:21:55;;;;;;;;;;;;;;;18.93;28.70;101410.88;1743062;82;20123;-72
2022/03/22 09:24:29;;;;;;;;;;;;;;;19.02;28.04;101409.48;1729795;82;22102;-74
2022/03/22 09:26:59;;;;;;;;;;;;;;;19.18;28.51;101404.21;1732038;82;20160;-71
2022/03/22 09:29:33;;;;;;;;;;;;;;;19.11;28.23;101405.52;1738648;82;20127;-73
2022/03/22 09:32:04;;;;;;;;;;;;;;;19.00;27.87;101404.81;1738119;82;20160;-71
2022/03/22 09:34:34;;;;;;;;;;;;;;;19.12;27.13;101400.77;1713015;82;20451;-73
2022/03/22 09:37:07;;;;;;;;;;;;;;;19.08;27.65;101394.23;1716476;82;20662;-70
2022/03/22 09:39:35;;;;;;;;;;;;;;;19.07;26.80;101391.20;1715651;82;20111;-71
2022/03/22 09:42:03;;;;;;;;;;;;;;;19.27;27.36;101401.66;1743495;82;20173;-70
2022/03/22 09:44:32;;;;;;;;;;;;;;;19.57;27.54;101390.67;1743645;82;20442;-70
2022/03/22 09:47:00;;;;;;;;;;;;;;;19.54;27.39;101394.12;1725431;82;20120;-71
2022/03/22 09:49:29;;;;;;;;;;;;;;;19.73;26.04;101384.20;1723101;82;21135;-71
2022/03/22 09:51:58;;;;;;;;;;;;;;;19.84;25.97;101381.88;1743411;81;20182;-71
2022/03/22 09:54:31;;;;;;;;;;;;;;;20.00;25.79;101376.56;1743109;82;20103;-72
2022/03/22 09:57:04;;;;;;;;;;;;;;;20.18;26.79;101380.90;1730392;82;20611;-69
2022/03/22 09:59:30;;;;;;;;;;;;;;;20.15;25.93;101382.97;1718233;81;20157;-69
2022/03/22 10:02:02;;;;;;;;;;;;;;;20.19;25.05;101365.80;1717862;82;21910;-69
2022/03/22 10:04:37;;;;;;;;;;;;;;;20.08;24.75;101370.13;1742177;82;20178;-66
2022/03/22 10:07:07;;;;;;;;;;;;;;;19.99;25.80;101367.38;1743453;82;20119;-67
2022/03/22 10:09:41;;;;;;;;;;;;;;;20.10;25.16;101359.45;1742522;82;20123;-68
2022/03/22 10:12:16;;;;;;;;;;;;;;;20.16;26.14;101352.54;1741175;82;20118;-68
2022/03/22 10:14:43;;;;;;;;;;;;;;;20.11;24.30;101350.75;1739549;82;20144;-68
2022/03/22 10:17:14;;;;;;;;;;;;;;;20.24;23.42;101353.03;1716788;82;20684;-69
2022/03/22 10:19:50;;;;;;;;;;;;;;;20.53;22.80;101345.83;1738144;82;20331;-70
2022/03/22 10:22:26;;;;;;;;;;;;;;;20.65;22.41;101353.70;1727619;83;20089;-68
2022/03/22 10:25:03;;;;;;;;;;;;;;;20.58;23.17;101348.41;1728565;83;20124;-71
2022/03/22 10:27:37;;;;;;;;;;;;;;;20.71;23.60;101343.14;1728516;83;21258;-68
2022/03/22 10:30:11;;;;;;;;;;;;;;;20.82;23.21;101341.55;1727638;83;20120;-71
2022/03/22 10:32:38;;;;;;;;;;;;;;;20.87;22.74;101337.15;1672637;84;20481;-71
2022/03/22 10:35:26;;;;;;;;;;;;;;;21.06;22.16;101339.44;1727209;83;20165;-68
2022/03/22 10:38:02;;;;;;;;;;;;;;;21.14;22.03;101333.55;1726912;83;20096;-69
2022/03/22 10:40:40;;;;;;;;;;;;;;;21.15;20.90;101335.98;1672701;84;20170;-68
2022/03/22 10:43:09;;;;;;;;;;;;;;;21.01;21.39;101336.86;1728083;83;20121;-68
2022/03/22 10:45:44;;;;;;;;;;;;;;;20.90;21.39;101336.47;1728232;83;20173;-69
2022/03/22 10:48:28;;;;;;;;;;;;;;;20.91;20.55;101332.52;1727710;83;20341;-68
2022/03/22 10:50:54;;;;;;;;;;;;;;;20.85;21.20;101321.33;1698149;84;20179;-72
2022/03/22 10:53:23;;;;;;;;;;;;;;;20.93;19.93;101323.22;1692708;84;21163;-68
2022/03/22 10:55:50;;;;;;;;;;;;;;;21.00;20.92;101324.06;1743529;82;20095;-70
2022/03/22 10:58:20;;;;;;;;;;;;;;;21.01;21.51;101329.88;1737961;82;20210;-72
2022/03/22 11:00:48;;;;;;;;;;;;;;;20.97;20.74;101330.33;1723467;83;20176;-71
2022/03/22 11:03:17;;;;;;;;;;;;;;;20.96;21.45;101328.12;1675344;84;20189;-72
2022/03/22 11:05:50;;;;;;;;;;;;;;;21.17;21.12;101325.88;1722574;83;21150;-72
2022/03/22 11:08:22;;;;;;;;;;;;;;;21.27;21.39;101319.88;1722280;83;20439;-72
2022/03/22 11:10:51;;;;;;;;;;;;;;;21.26;19.53;101316.86;1722393;83;20456;-70
2022/03/22 11:13:19;;;;;;;;;;;;;;;21.12;19.76;101319.11;1721940;83;20452;-71
2022/03/22 11:15:50;;;;;;;;;;;;;;;21.13;20.42;101317.95;1706820;83;20186;-67
2022/03/22 11:18:28;;;;;;;;;;;;;;;21.24;19.81;101310.80;1699263;84;20152;-69
2022/03/22 11:20:57;;;;;;;;;;;;;;;21.26;19.97;101312.09;1698088;84;20163;-72
2022/03/22 11:23:40;;;;;;;;;;;;;;;21.36;19.61;101306.64;1699176;84;20115;-73
2022/03/22 11:26:13;;;;;;;;;;;;;;;21.34;18.65;101306.17;1698316;84;20181;-73
2022/03/22 11:28:45;;;;;;;;;;;;;;;21.16;19.33;101306.09;1699422;84;20178;-72
2022/03/22 11:31:09;;;;;;;;;;;;;;;21.17;19.29;101311.91;1698363;84;21177;-73
2022/03/22 11:34:23;;;;;;;;;;;;;;;21.20;18.93;101307.03;1699186;84;20127;-73
2022/03/22 11:36:19;;;;;;;;;;;;;;;21.04;19.51;101306.28;1681346;84;20147;-73
2022/03/22 11:38:57;;;;;;;;;;;;;;;20.83;19.59;101302.70;1699332;84;20126;-73
2022/03/22 11:44:31;;;;;;;;;;;;;;;21.09;19.76;101289.31;1720493;83;21162;-73
2022/03/22 11:47:05;;;;;;;;;;;;;;;21.45;20.01;101286.38;1739696;82;20150;-74
2022/03/22 11:49:55;;;;;;;;;;;;;;;21.82;18.97;101289.20;1740026;82;20178;-73
2022/03/22 11:52:25;;;;;;;;;;;;;;;21.93;18.83;101282.79;1740992;82;20438;-72
2022/03/22 11:54:58;;;;;;;;;;;;;;;22.07;18.98;101279.63;1715430;82;20411;-72
2022/03/22 11:57:32;;;;;;;;;;;;;;;22.08;18.09;101281.27;1714861;82;20165;-72
2022/03/22 12:00:05;;;;;;;;;;;;;;;21.94;17.86;101277.43;1740846;82;20460;-70
2022/03/22 12:02:34;;;;;;;;;;;;;;;21.81;18.09;101276.39;1741087;82;20473;-68
2022/03/22 12:05:04;;;;;;;;;;;;;;;21.73;17.80;101275.34;1739595;82;20193;-72
2022/03/22 12:07:36;;;;;;;;;;;;;;;21.58;18.29;101265.66;1740621;82;20581;-72
2022/03/22 12:10:11;;;;;;;;;;;;;;;21.59;18.03;101259.50;1734320;82;21132;-71
2022/03/22 12:12:43;;;;;;;;;;;;;;;21.74;17.33;101268.58;1735907;82;20150;-71
2022/03/22 12:15:17;;;;;;;;;;;;;;;21.99;17.62;101267.37;1719255;82;20453;-70
2022/03/22 12:17:46;;;;;;;;;;;;;;;22.25;17.16;101253.62;1712439;83;20174;-65
2022/03/22 12:20:13;;;;;;;;;;;;;;;22.17;17.49;101259.58;1732226;82;20426;-66
2022/03/22 12:22:50;;;;;;;;;;;;;;;22.16;16.93;101257.95;1741179;82;20076;-63
2022/03/22 12:25:18;;;;;;;;;;;;;;;22.06;17.28;101261.22;1719539;82;20414;-63
2022/03/22 12:28:03;;;;;;;;;;;;;;;22.11;17.42;101245.60;1721785;82;20179;-64
2022/03/22 12:30:37;;;;;;;;;;;;;;;22.23;17.01;101245.58;1714210;82;20097;-65
2022/03/22 12:33:15;;;;;;;;;;;;;;;22.26;17.71;101242.66;1693323;83;20528;-64
2022/03/22 12:35:45;;;;;;;;;;;;;;;22.35;17.67;101248.34;1715988;83;20845;-64
2022/03/22 12:38:15;;;;;;;;;;;;;;;22.40;16.58;101242.50;1715851;83;20192;-65
2022/03/22 12:40:44;;;;;;;;;;;;;;;22.36;15.98;101244.38;1716612;83;20089;-68
2022/03/22 12:43:18;;;;;;;;;;;;;;;22.22;16.07;101249.54;1716372;82;20172;-64
2022/03/22 12:45:51;;;;;;;;;;;;;;;22.21;15.37;101245.11;1716535;83;20201;-64
2022/03/22 12:48:18;;;;;;;;;;;;;;;22.22;15.63;101242.55;1693642;83;20423;-65
2022/03/22 12:50:49;;;;;;;;;;;;;;;22.29;16.15;101246.96;1716262;83;20164;-69
2022/03/22 12:53:22;;;;;;;;;;;;;;;22.54;15.91;101248.25;1716577;83;20431;-67
2022/03/22 12:55:50;;;;;;;;;;;;;;;22.77;15.88;101240.93;1716622;83;20132;-70
2022/03/22 12:58:32;;;;;;;;;;;;;;;23.05;15.33;101241.74;1716117;83;20184;-67
2022/03/22 13:01:03;;;;;;;;;;;;;;;23.15;15.76;101239.56;1693339;83;20125;-70
2022/03/22 13:03:36;;;;;;;;;;;;;;;23.18;14.08;101230.44;1716591;83;20456;-68
2022/03/22 13:06:06;;;;;;;;;;;;;;;23.01;15.77;101231.62;1716603;83;20113;-69
2022/03/22 13:11:26;;;;;;;;;;;;;;;23.21;15.54;101232.52;1696527;82;20192;-69
2022/03/22 13:16:56;;;;;;;;;;;;;;;23.19;14.74;101227.86;1693782;83;20097;-69
2022/03/22 13:19:39;;;;;;;;;;;;;;;23.33;14.87;101227.64;1716677;83;20085;-67
2022/03/22 13:22:13;;;;;;;;;;;;;;;23.60;14.84;101219.53;1715797;83;20129;-68
2022/03/22 13:24:45;;;;;;;;;;;;;;;23.93;14.58;101219.89;1716393;83;20089;-67
2022/03/22 13:27:14;;;;;;;;;;;;;;;23.93;14.28;101217.67;1715894;83;21993;-68
2022/03/22 13:29:42;;;;;;;;;;;;;;;23.81;14.34;101213.59;1716057;83;20085;-67
2022/03/22 13:32:22;;;;;;;;;;;;;;;23.68;14.45;101210.11;1717088;83;20077;-71
2022/03/22 13:34:47;;;;;;;;;;;;;;;23.53;14.00;101207.55;1716307;83;20126;-71
2022/03/22 13:37:15;;;;;;;;;;;;;;;23.39;14.67;101209.38;1717157;83;20156;-68
2022/03/22 13:39:49;;;;;;;;;;;;;;;23.34;14.99;101211.64;1717082;83;21089;-69